Terminal Aerodrome Forecast
Issued by NWS

Home | Current Version | Previous Version | Text Only | Print | Product List | Glossary On
Versions: 1 2 3 4 5 6 7 8 9 10 11 12 13 14
930
FTUS45 KABQ 291228 AAA
TAFSAF
TAF AMD
KSAF 291228Z 2912/3012 13010KT P6SM VCSH SCT100 BKN150
      TEMPO 2912/2914 VRB10G20KT -SHRA BKN100
     FM291400 VRB05KT P6SM FEW110
     FM291900 23011KT P6SM SCT090
     FM292300 32014KT P6SM VCTS SCT090CB BKN140
      TEMPO 2923/3001 VRB20G30KT -SHRA BKN090
     FM300100 13015KT P6SM VCSH BKN090
     FM300400 12007KT P6SM SCT150=

USA.gov is the U.S. government's official web portal to all federal, state and local government web resources and services.